sensor_id;sensor_type;location;lat;lon;timestamp;pressure;altitude;pressure_sealevel;temperature;humidity
80323;BME280;69636;52.372;13.610;2023-09-30T00:01:02;101711.66;;;17.12;95.98
80323;BME280;69636;52.372;13.610;2023-09-30T00:03:30;101714.72;;;16.93;96.47
80323;BME280;69636;52.372;13.610;2023-09-30T00:05:59;101714.75;;;16.85;97.40
80323;BME280;69636;52.372;13.610;2023-09-30T00:08:26;101725.63;;;16.91;97.74
80323;BME280;69636;52.372;13.610;2023-09-30T00:10:53;101733.03;;;16.73;99.46
80323;BME280;69636;52.372;13.610;2023-09-30T00:13:21;101741.75;;;16.51;100.00
80323;BME280;69636;52.372;13.610;2023-09-30T00:15:48;101737.38;;;16.50;100.00
80323;BME280;69636;52.372;13.610;2023-09-30T00:18:15;101743.22;;;16.37;100.00
80323;BME280;69636;52.372;13.610;2023-09-30T00:20:43;101746.41;;;16.24;100.00
80323;BME280;69636;52.372;13.610;2023-09-30T00:23:11;101743.38;;;16.11;100.00
80323;BME280;69636;52.372;13.610;2023-09-30T00:25:39;101750.41;;;16.12;100.00
80323;BME280;69636;52.372;13.610;2023-09-30T00:28:06;101748.72;;;16.11;100.00
80323;BME280;69636;52.372;13.610;2023-09-30T00:30:33;101752.94;;;16.22;100.00
80323;BME280;69636;52.372;13.610;2023-09-30T00:33:00;101757.47;;;16.29;99.34
80323;BME280;69636;52.372;13.610;2023-09-30T00:35:28;101764.16;;;16.25;98.62
80323;BME280;69636;52.372;13.610;2023-09-30T00:37:55;101766.53;;;16.28;95.66
80323;BME280;69636;52.372;13.610;2023-09-30T00:40:24;101766.88;;;16.34;93.96
80323;BME280;69636;52.372;13.610;2023-09-30T00:42:51;101775.25;;;16.31;94.15
80323;BME280;69636;52.372;13.610;2023-09-30T00:45:18;101763.50;;;16.23;93.70
80323;BME280;69636;52.372;13.610;2023-09-30T00:47:46;101770.34;;;16.18;92.25
80323;BME280;69636;52.372;13.610;2023-09-30T00:50:14;101772.19;;;16.09;91.29
80323;BME280;69636;52.372;13.610;2023-09-30T00:52:42;101780.19;;;16.01;90.37
80323;BME280;69636;52.372;13.610;2023-09-30T00:55:10;101781.84;;;15.94;89.83
80323;BME280;69636;52.372;13.610;2023-09-30T00:57:39;101791.88;;;15.92;89.47
80323;BME280;69636;52.372;13.610;2023-09-30T01:00:08;101800.22;;;15.81;88.95
80323;BME280;69636;52.372;13.610;2023-09-30T01:02:35;101795.88;;;15.80;88.80
80323;BME280;69636;52.372;13.610;2023-09-30T01:05:03;101791.84;;;15.76;89.71
80323;BME280;69636;52.372;13.610;2023-09-30T01:07:30;101800.56;;;15.78;89.10
80323;BME280;69636;52.372;13.610;2023-09-30T01:09:58;101799.88;;;15.76;89.35
80323;BME280;69636;52.372;13.610;2023-09-30T01:12:25;101810.84;;;15.65;89.61
80323;BME280;69636;52.372;13.610;2023-09-30T01:14:58;101809.00;;;15.57;89.87
80323;BME280;69636;52.372;13.610;2023-09-30T01:17:26;101809.28;;;15.54;90.01
80323;BME280;69636;52.372;13.610;2023-09-30T01:19:53;101807.72;;;15.43;90.43
80323;BME280;69636;52.372;13.610;2023-09-30T01:22:22;101815.06;;;15.41;90.51
80323;BME280;69636;52.372;13.610;2023-09-30T01:24:49;101819.34;;;15.34;90.76
80323;BME280;69636;52.372;13.610;2023-09-30T01:27:16;101831.06;;;15.33;90.10
80323;BME280;69636;52.372;13.610;2023-09-30T01:29:44;101844.25;;;15.26;90.07
80323;BME280;69636;52.372;13.610;2023-09-30T01:32:11;101849.91;;;15.23;89.36
80323;BME280;69636;52.372;13.610;2023-09-30T01:34:38;101855.56;;;15.20;89.08
80323;BME280;69636;52.372;13.610;2023-09-30T01:37:05;101847.47;;;15.12;88.70
80323;BME280;69636;52.372;13.610;2023-09-30T01:39:34;101851.09;;;15.03;89.94
80323;BME280;69636;52.372;13.610;2023-09-30T01:42:02;101856.16;;;15.06;89.48
80323;BME280;69636;52.372;13.610;2023-09-30T01:44:29;101861.28;;;15.00;89.76
80323;BME280;69636;52.372;13.610;2023-09-30T01:46:57;101861.28;;;15.00;90.23
80323;BME280;69636;52.372;13.610;2023-09-30T01:49:24;101871.59;;;14.94;90.22
80323;BME280;69636;52.372;13.610;2023-09-30T01:51:51;101870.31;;;14.81;90.60
80323;BME280;69636;52.372;13.610;2023-09-30T01:54:19;101886.66;;;14.78;91.01
80323;BME280;69636;52.372;13.610;2023-09-30T01:56:47;101883.34;;;14.84;90.13
80323;BME280;69636;52.372;13.610;2023-09-30T01:59:15;101877.56;;;14.71;90.71
80323;BME280;69636;52.372;13.610;2023-09-30T02:01:42;101884.03;;;14.68;90.68
80323;BME280;69636;52.372;13.610;2023-09-30T02:04:10;101892.44;;;14.55;91.79
80323;BME280;69636;52.372;13.610;2023-09-30T02:06:37;101886.41;;;14.53;91.58
80323;BME280;69636;52.372;13.610;2023-09-30T02:09:04;101890.28;;;14.59;91.32
80323;BME280;69636;52.372;13.610;2023-09-30T02:11:32;101900.09;;;14.50;91.39
80323;BME280;69636;52.372;13.610;2023-09-30T02:14:01;101910.06;;;14.48;91.66
80323;BME280;69636;52.372;13.610;2023-09-30T02:16:29;101918.19;;;14.29;92.55
80323;BME280;69636;52.372;13.610;2023-09-30T02:18:56;101915.09;;;14.24;92.37
80323;BME280;69636;52.372;13.610;2023-09-30T02:21:24;101910.50;;;14.16;93.29
80323;BME280;69636;52.372;13.610;2023-09-30T02:23:51;101915.16;;;14.14;93.45
80323;BME280;69636;52.372;13.610;2023-09-30T02:26:18;101924.16;;;14.13;93.28
80323;BME280;69636;52.372;13.610;2023-09-30T02:28:46;101915.94;;;13.97;93.86
80323;BME280;69636;52.372;13.610;2023-09-30T02:31:14;101926.66;;;13.87;95.31
80323;BME280;69636;52.372;13.610;2023-09-30T02:33:41;101922.91;;;13.71;95.39
80323;BME280;69636;52.372;13.610;2023-09-30T02:36:09;101921.13;;;13.62;96.04
80323;BME280;69636;52.372;13.610;2023-09-30T02:38:36;101920.97;;;13.63;96.37
80323;BME280;69636;52.372;13.610;2023-09-30T02:41:03;101926.31;;;13.63;96.34
80323;BME280;69636;52.372;13.610;2023-09-30T02:43:31;101923.34;;;13.66;96.44
80323;BME280;69636;52.372;13.610;2023-09-30T02:45:58;101931.06;;;13.69;96.58
80323;BME280;69636;52.372;13.610;2023-09-30T02:48:27;101931.34;;;13.66;96.96
80323;BME280;69636;52.372;13.610;2023-09-30T02:50:54;101936.28;;;13.61;97.03
80323;BME280;69636;52.372;13.610;2023-09-30T02:53:22;101942.03;;;13.56;98.06
80323;BME280;69636;52.372;13.610;2023-09-30T02:55:49;101950.75;;;13.58;97.65
80323;BME280;69636;52.372;13.610;2023-09-30T02:58:16;101961.84;;;13.54;98.26
80323;BME280;69636;52.372;13.610;2023-09-30T03:00:47;101965.34;;;13.54;98.42
80323;BME280;69636;52.372;13.610;2023-09-30T03:03:15;101968.47;;;13.50;98.40
80323;BME280;69636;52.372;13.610;2023-09-30T03:05:44;101963.13;;;13.40;99.14
80323;BME280;69636;52.372;13.610;2023-09-30T03:08:11;101964.53;;;13.35;99.35
80323;BME280;69636;52.372;13.610;2023-09-30T03:10:39;101968.75;;;13.37;99.60
80323;BME280;69636;52.372;13.610;2023-09-30T03:13:06;101964.41;;;13.36;99.76
80323;BME280;69636;52.372;13.610;2023-09-30T03:15:33;101965.38;;;13.25;100.00
80323;BME280;69636;52.372;13.610;2023-09-30T03:18:01;101965.13;;;13.19;100.00
80323;BME280;69636;52.372;13.610;2023-09-30T03:20:28;101969.28;;;13.12;100.00
80323;BME280;69636;52.372;13.610;2023-09-30T03:22:57;101979.97;;;13.12;100.00
80323;BME280;69636;52.372;13.610;2023-09-30T03:25:25;101976.88;;;13.07;100.00
80323;BME280;69636;52.372;13.610;2023-09-30T03:27:52;101985.72;;;13.07;100.00
80323;BME280;69636;52.372;13.610;2023-09-30T03:30:20;101983.59;;;13.11;100.00
80323;BME280;69636;52.372;13.610;2023-09-30T03:32:47;101984.91;;;13.16;100.00
80323;BME280;69636;52.372;13.610;2023-09-30T03:35:15;101996.81;;;13.12;100.00
80323;BME280;69636;52.372;13.610;2023-09-30T03:37:43;101997.78;;;13.11;100.00
80323;BME280;69636;52.372;13.610;2023-09-30T03:40:13;101986.81;;;13.05;100.00
80323;BME280;69636;52.372;13.610;2023-09-30T03:42:41;101987.22;;;13.00;100.00
80323;BME280;69636;52.372;13.610;2023-09-30T03:45:09;101987.81;;;12.94;100.00
80323;BME280;69636;52.372;13.610;2023-09-30T03:47:37;101993.41;;;12.91;100.00
80323;BME280;69636;52.372;13.610;2023-09-30T03:50:05;101993.41;;;12.91;100.00
80323;BME280;69636;52.372;13.610;2023-09-30T03:52:33;101993.38;;;12.81;100.00
80323;BME280;69636;52.372;13.610;2023-09-30T03:55:00;101991.56;;;12.72;100.00
80323;BME280;69636;52.372;13.610;2023-09-30T03:57:30;101997.56;;;12.65;100.00
80323;BME280;69636;52.372;13.610;2023-09-30T03:59:57;102000.78;;;12.58;100.00
80323;BME280;69636;52.372;13.610;2023-09-30T04:02:24;102008.19;;;12.55;100.00
80323;BME280;69636;52.372;13.610;2023-09-30T04:04:52;102006.50;;;12.54;100.00
80323;BME280;69636;52.372;13.610;2023-09-30T04:07:19;102003.53;;;12.47;100.00
80323;BME280;69636;52.372;13.610;2023-09-30T04:09:47;102016.31;;;12.44;100.00
80323;BME280;69636;52.372;13.610;2023-09-30T04:12:15;102009.56;;;12.49;100.00
80323;BME280;69636;52.372;13.610;2023-09-30T04:14:43;102006.19;;;12.47;100.00
80323;BME280;69636;52.372;13.610;2023-09-30T04:17:11;101996.69;;;12.45;100.00
80323;BME280;69636;52.372;13.610;2023-09-30T04:19:38;101992.72;;;12.39;100.00
80323;BME280;69636;52.372;13.610;2023-09-30T04:22:05;102011.19;;;12.31;100.00
80323;BME280;69636;52.372;13.610;2023-09-30T04:24:33;102016.19;;;12.15;100.00
80323;BME280;69636;52.372;13.610;2023-09-30T04:27:00;102018.31;;;12.00;100.00
80323;BME280;69636;52.372;13.610;2023-09-30T04:29:27;102034.28;;;12.00;100.00
80323;BME280;69636;52.372;13.610;2023-09-30T04:31:56;102039.34;;;12.03;100.00
80323;BME280;69636;52.372;13.610;2023-09-30T04:34:23;102047.59;;;12.00;100.00
80323;BME280;69636;52.372;13.610;2023-09-30T04:36:51;102044.09;;;12.00;100.00
80323;BME280;69636;52.372;13.610;2023-09-30T04:39:18;102031.88;;;11.97;100.00
80323;BME280;69636;52.372;13.610;2023-09-30T04:41:45;102025.34;;;12.01;100.00
80323;BME280;69636;52.372;13.610;2023-09-30T04:44:13;102031.38;;;12.03;100.00
80323;BME280;69636;52.372;13.610;2023-09-30T04:46:40;102031.75;;;11.99;100.00
80323;BME280;69636;52.372;13.610;2023-09-30T04:49:09;102038.38;;;12.04;100.00
80323;BME280;69636;52.372;13.610;2023-09-30T04:51:36;102034.63;;;12.07;100.00
80323;BME280;69636;52.372;13.610;2023-09-30T04:54:03;102041.03;;;12.04;100.00
80323;BME280;69636;52.372;13.610;2023-09-30T04:56:31;102043.50;;;11.96;100.00
80323;BME280;69636;52.372;13.610;2023-09-30T04:58:58;102031.19;;;11.95;100.00
80323;BME280;69636;52.372;13.610;2023-09-30T05:01:25;102033.16;;;11.93;100.00
80323;BME280;69636;52.372;13.610;2023-09-30T05:03:53;102032.81;;;11.86;100.00
80323;BME280;69636;52.372;13.610;2023-09-30T05:06:21;102030.53;;;11.82;100.00
80323;BME280;69636;52.372;13.610;2023-09-30T05:08:49;102043.59;;;11.74;100.00
80323;BME280;69636;52.372;13.610;2023-09-30T05:11:16;102044.72;;;11.71;100.00
80323;BME280;69636;52.372;13.610;2023-09-30T05:13:43;102051.84;;;11.71;100.00
80323;BME280;69636;52.372;13.610;2023-09-30T05:16:11;102052.81;;;11.70;100.00
80323;BME280;69636;52.372;13.610;2023-09-30T05:18:38;102050.56;;;11.65;100.00
80323;BME280;69636;52.372;13.610;2023-09-30T05:21:06;102062.06;;;11.66;100.00
80323;BME280;69636;52.372;13.610;2023-09-30T05:23:34;102064.72;;;11.66;100.00
80323;BME280;69636;52.372;13.610;2023-09-30T05:26:02;102069.91;;;11.67;100.00
80323;BME280;69636;52.372;13.610;2023-09-30T05:28:29;102065.75;;;11.74;100.00
80323;BME280;69636;52.372;13.610;2023-09-30T05:30:57;102072.53;;;11.78;100.00
80323;BME280;69636;52.372;13.610;2023-09-30T05:33:24;102077.94;;;11.88;100.00
80323;BME280;69636;52.372;13.610;2023-09-30T05:35:51;102069.47;;;11.83;100.00
80323;BME280;69636;52.372;13.610;2023-09-30T05:38:19;102075.91;;;11.80;100.00
80323;BME280;69636;52.372;13.610;2023-09-30T05:40:47;102077.00;;;11.78;100.00
80323;BME280;69636;52.372;13.610;2023-09-30T05:43:15;102083.16;;;11.78;100.00
80323;BME280;69636;52.372;13.610;2023-09-30T05:45:42;102087.38;;;11.81;100.00
80323;BME280;69636;52.372;13.610;2023-09-30T05:48:09;102090.50;;;11.86;100.00
80323;BME280;69636;52.372;13.610;2023-09-30T05:50:37;102094.63;;;11.90;100.00
80323;BME280;69636;52.372;13.610;2023-09-30T05:53:04;102098.69;;;11.94;100.00
80323;BME280;69636;52.372;13.610;2023-09-30T05:55:31;102097.19;;;12.01;100.00
80323;BME280;69636;52.372;13.610;2023-09-30T05:58:00;102098.25;;;12.10;100.00
80323;BME280;69636;52.372;13.610;2023-09-30T06:00:27;102103.31;;;12.13;100.00
80323;BME280;69636;52.372;13.610;2023-09-30T06:02:55;102097.19;;;12.22;100.00
80323;BME280;69636;52.372;13.610;2023-09-30T06:05:22;102111.28;;;12.34;100.00
80323;BME280;69636;52.372;13.610;2023-09-30T06:07:49;102119.00;;;12.37;100.00
80323;BME280;69636;52.372;13.610;2023-09-30T06:10:17;102125.38;;;12.45;100.00
80323;BME280;69636;52.372;13.610;2023-09-30T06:12:45;102122.06;;;12.63;100.00
80323;BME280;69636;52.372;13.610;2023-09-30T06:15:14;102119.84;;;12.68;100.00
80323;BME280;69636;52.372;13.610;2023-09-30T06:17:42;102115.13;;;12.71;100.00
80323;BME280;69636;52.372;13.610;2023-09-30T06:20:11;102117.47;;;12.74;100.00
80323;BME280;69636;52.372;13.610;2023-09-30T06:22:38;102124.84;;;12.91;100.00
80323;BME280;69636;52.372;13.610;2023-09-30T06:25:06;102127.97;;;13.06;100.00
80323;BME280;69636;52.372;13.610;2023-09-30T06:27:34;102129.81;;;13.06;100.00
80323;BME280;69636;52.372;13.610;2023-09-30T06:30:01;102145.09;;;13.04;100.00
80323;BME280;69636;52.372;13.610;2023-09-30T06:32:30;102145.09;;;13.04;100.00
80323;BME280;69636;52.372;13.610;2023-09-30T06:34:58;102142.41;;;13.04;100.00
80323;BME280;69636;52.372;13.610;2023-09-30T06:37:25;102146.25;;;13.11;100.00
80323;BME280;69636;52.372;13.610;2023-09-30T06:39:52;102145.53;;;13.09;100.00
80323;BME280;69636;52.372;13.610;2023-09-30T06:42:19;102148.19;;;13.09;100.00
80323;BME280;69636;52.372;13.610;2023-09-30T06:44:47;102150.88;;;13.09;100.00
80323;BME280;69636;52.372;13.610;2023-09-30T06:47:14;102150.28;;;13.05;100.00
80323;BME280;69636;52.372;13.610;2023-09-30T06:49:43;102159.84;;;13.08;100.00
80323;BME280;69636;52.372;13.610;2023-09-30T06:52:10;102156.19;;;13.09;100.00
80323;BME280;69636;52.372;13.610;2023-09-30T06:54:37;102158.72;;;13.10;100.00
80323;BME280;69636;52.372;13.610;2023-09-30T06:57:05;102174.22;;;13.16;100.00
80323;BME280;69636;52.372;13.610;2023-09-30T06:59:32;102174.66;;;13.21;100.00
80323;BME280;69636;52.372;13.610;2023-09-30T07:01:59;102180.41;;;13.27;100.00
80323;BME280;69636;52.372;13.610;2023-09-30T07:04:27;102181.81;;;13.21;100.00
80323;BME280;69636;52.372;13.610;2023-09-30T07:06:55;102179.03;;;13.32;100.00
80323;BME280;69636;52.372;13.610;2023-09-30T07:09:23;102183.81;;;13.38;100.00
80323;BME280;69636;52.372;13.610;2023-09-30T07:11:50;102192.41;;;13.51;100.00
80323;BME280;69636;52.372;13.610;2023-09-30T07:14:17;102187.50;;;13.56;100.00
80323;BME280;69636;52.372;13.610;2023-09-30T07:16:45;102199.91;;;13.67;100.00
80323;BME280;69636;52.372;13.610;2023-09-30T07:19:12;102198.63;;;13.71;100.00
80323;BME280;69636;52.372;13.610;2023-09-30T07:21:39;102192.59;;;13.79;100.00
80323;BME280;69636;52.372;13.610;2023-09-30T07:24:08;102195.84;;;13.92;100.00
80323;BME280;69636;52.372;13.610;2023-09-30T07:26:35;102201.88;;;13.94;100.00
80323;BME280;69636;52.372;13.610;2023-09-30T07:29:03;102207.91;;;14.06;100.00
80323;BME280;69636;52.372;13.610;2023-09-30T07:31:34;102204.41;;;14.15;100.00
80323;BME280;69636;52.372;13.610;2023-09-30T07:34:02;102210.47;;;14.26;100.00
80323;BME280;69636;52.372;13.610;2023-09-30T07:36:29;102218.03;;;14.21;100.00
80323;BME280;69636;52.372;13.610;2023-09-30T07:38:56;102218.88;;;14.32;100.00
80323;BME280;69636;52.372;13.610;2023-09-30T07:41:26;102217.63;;;14.26;99.81
80323;BME280;69636;52.372;13.610;2023-09-30T07:43:53;102214.69;;;14.29;99.89
80323;BME280;69636;52.372;13.610;2023-09-30T07:46:20;102216.78;;;14.16;99.66
80323;BME280;69636;52.372;13.610;2023-09-30T07:48:47;102216.22;;;14.22;99.33
80323;BME280;69636;52.372;13.610;2023-09-30T07:51:15;102221.00;;;14.28;99.11
80323;BME280;69636;52.372;13.610;2023-09-30T07:53:42;102228.56;;;14.33;98.36
80323;BME280;69636;52.372;13.610;2023-09-30T07:56:09;102232.22;;;14.32;98.67
80323;BME280;69636;52.372;13.610;2023-09-30T07:58:38;102226.78;;;14.52;97.55
80323;BME280;69636;52.372;13.610;2023-09-30T08:01:07;102221.50;;;14.80;96.88
80323;BME280;69636;52.372;13.610;2023-09-30T08:03:35;102230.75;;;14.85;95.19
80323;BME280;69636;52.372;13.610;2023-09-30T08:06:03;102239.19;;;14.90;95.03
80323;BME280;69636;52.372;13.610;2023-09-30T08:08:30;102244.72;;;14.79;94.86
80323;BME280;69636;52.372;13.610;2023-09-30T08:10:57;102244.88;;;14.78;94.76
80323;BME280;69636;52.372;13.610;2023-09-30T08:13:24;102247.69;;;14.76;94.82
80323;BME280;69636;52.372;13.610;2023-09-30T08:15:53;102244.59;;;14.71;95.89
80323;BME280;69636;52.372;13.610;2023-09-30T08:18:21;102240.09;;;14.72;94.86
80323;BME280;69636;52.372;13.610;2023-09-30T08:20:48;102247.69;;;14.76;95.23
80323;BME280;69636;52.372;13.610;2023-09-30T08:23:16;102254.00;;;14.75;94.98
80323;BME280;69636;52.372;13.610;2023-09-30T08:25:43;102257.25;;;14.79;94.90
80323;BME280;69636;52.372;13.610;2023-09-30T08:28:11;102252.31;;;14.74;94.74
80323;BME280;69636;52.372;13.610;2023-09-30T08:30:39;102256.38;;;14.88;94.15
80323;BME280;69636;52.372;13.610;2023-09-30T08:33:08;102247.09;;;14.82;94.37
80323;BME280;69636;52.372;13.610;2023-09-30T08:35:36;102245.66;;;14.98;93.38
80323;BME280;69636;52.372;13.610;2023-09-30T08:38:03;102248.19;;;14.99;92.93
80323;BME280;69636;52.372;13.610;2023-09-30T08:40:31;102244.72;;;15.16;92.34
80323;BME280;69636;52.372;13.610;2023-09-30T08:42:58;102262.16;;;15.30;91.61
80323;BME280;69636;52.372;13.610;2023-09-30T08:45:28;102250.13;;;15.34;90.81
80323;BME280;69636;52.372;13.610;2023-09-30T08:47:57;102258.69;;;15.47;89.82
80323;BME280;69636;52.372;13.610;2023-09-30T08:50:26;102258.59;;;15.67;89.73
80323;BME280;69636;52.372;13.610;2023-09-30T08:52:53;102249.56;;;15.68;90.00
80323;BME280;69636;52.372;13.610;2023-09-30T08:55:20;102259.25;;;15.78;89.11
80323;BME280;69636;52.372;13.610;2023-09-30T08:57:48;102251.75;;;15.82;88.89
80323;BME280;69636;52.372;13.610;2023-09-30T09:00:18;102242.59;;;16.02;88.62
80323;BME280;69636;52.372;13.610;2023-09-30T09:02:47;102244.13;;;16.05;88.06
80323;BME280;69636;52.372;13.610;2023-09-30T09:05:14;102245.78;;;16.23;86.85
80323;BME280;69636;52.372;13.610;2023-09-30T09:07:43;102243.19;;;16.32;86.00
80323;BME280;69636;52.372;13.610;2023-09-30T09:10:11;102254.22;;;16.28;85.71
80323;BME280;69636;52.372;13.610;2023-09-30T09:12:40;102253.91;;;16.32;85.60
80323;BME280;69636;52.372;13.610;2023-09-30T09:15:19;102255.59;;;16.33;86.11
80323;BME280;69636;52.372;13.610;2023-09-30T09:17:46;102250.66;;;16.46;85.27
80323;BME280;69636;52.372;13.610;2023-09-30T09:20:16;102256.75;;;16.30;84.63
80323;BME280;69636;52.372;13.610;2023-09-30T09:22:47;102252.19;;;16.48;84.47
80323;BME280;69636;52.372;13.610;2023-09-30T09:25:15;102251.44;;;16.56;84.35
80323;BME280;69636;52.372;13.610;2023-09-30T09:27:42;102246.66;;;16.68;83.68
80323;BME280;69636;52.372;13.610;2023-09-30T09:30:17;102241.91;;;16.79;82.53
80323;BME280;69636;52.372;13.610;2023-09-30T09:32:58;102243.56;;;17.06;82.56
80323;BME280;69636;52.372;13.610;2023-09-30T09:35:26;102242.13;;;17.20;80.74
80323;BME280;69636;52.372;13.610;2023-09-30T09:37:58;102242.78;;;17.22;80.59
80323;BME280;69636;52.372;13.610;2023-09-30T09:40:27;102254.50;;;17.13;80.89
80323;BME280;69636;52.372;13.610;2023-09-30T09:42:55;102248.91;;;17.32;80.89
80323;BME280;69636;52.372;13.610;2023-09-30T09:45:25;102249.06;;;17.30;79.30
80323;BME280;69636;52.372;13.610;2023-09-30T09:47:53;102253.34;;;17.57;79.24
80323;BME280;69636;52.372;13.610;2023-09-30T09:50:22;102248.69;;;17.68;79.17
80323;BME280;69636;52.372;13.610;2023-09-30T09:52:52;102245.66;;;17.62;76.92
80323;BME280;69636;52.372;13.610;2023-09-30T09:55:22;102243.94;;;17.53;76.83
80323;BME280;69636;52.372;13.610;2023-09-30T09:57:50;102251.22;;;17.69;77.26
80323;BME280;69636;52.372;13.610;2023-09-30T10:00:19;102252.44;;;17.67;77.14
80323;BME280;69636;52.372;13.610;2023-09-30T10:02:47;102238.22;;;17.90;76.54
80323;BME280;69636;52.372;13.610;2023-09-30T10:05:15;102247.38;;;17.72;76.25
80323;BME280;69636;52.372;13.610;2023-09-30T10:07:45;102245.25;;;17.49;76.26
80323;BME280;69636;52.372;13.610;2023-09-30T10:10:17;102241.69;;;17.33;77.12
80323;BME280;69636;52.372;13.610;2023-09-30T10:12:47;102239.84;;;17.33;77.53
80323;BME280;69636;52.372;13.610;2023-09-30T10:15:37;102244.66;;;17.63;77.17
80323;BME280;69636;52.372;13.610;2023-09-30T10:18:05;102231.00;;;18.07;75.44
80323;BME280;69636;52.372;13.610;2023-09-30T10:20:36;102237.06;;;18.34;72.63
80323;BME280;69636;52.372;13.610;2023-09-30T10:23:25;102236.19;;;18.49;71.77
80323;BME280;69636;52.372;13.610;2023-09-30T10:25:54;102233.50;;;18.49;71.44
80323;BME280;69636;52.372;13.610;2023-09-30T10:28:42;102234.38;;;18.34;71.25
80323;BME280;69636;52.372;13.610;2023-09-30T10:31:11;102228.50;;;18.14;71.42
80323;BME280;69636;52.372;13.610;2023-09-30T10:34:20;102241.75;;;18.48;71.31
80323;BME280;69636;52.372;13.610;2023-09-30T10:36:49;102231.69;;;18.66;70.82
80323;BME280;69636;52.372;13.610;2023-09-30T10:42:45;102236.06;;;18.35;70.79
80323;BME280;69636;52.372;13.610;2023-09-30T10:45:45;102240.44;;;18.60;70.95
80323;BME280;69636;52.372;13.610;2023-09-30T10:48:32;102237.31;;;19.04;67.33
80323;BME280;69636;52.372;13.610;2023-09-30T10:51:00;102232.84;;;19.27;65.57
80323;BME280;69636;52.372;13.610;2023-09-30T10:53:29;102235.47;;;19.51;64.33
80323;BME280;69636;52.372;13.610;2023-09-30T10:55:58;102238.81;;;19.14;63.88
80323;BME280;69636;52.372;13.610;2023-09-30T10:58:39;102242.69;;;19.12;63.46
80323;BME280;69636;52.372;13.610;2023-09-30T11:01:08;102246.97;;;19.29;63.13
80323;BME280;69636;52.372;13.610;2023-09-30T11:03:36;102240.50;;;19.54;63.38
80323;BME280;69636;52.372;13.610;2023-09-30T11:06:03;102245.22;;;19.52;62.81
80323;BME280;69636;52.372;13.610;2023-09-30T11:08:40;102240.38;;;19.48;63.44
80323;BME280;69636;52.372;13.610;2023-09-30T11:11:11;102245.94;;;18.83;64.28
80323;BME280;69636;52.372;13.610;2023-09-30T11:13:39;102248.66;;;18.42;64.76
80323;BME280;69636;52.372;13.610;2023-09-30T11:16:08;102247.28;;;18.46;65.18
80323;BME280;69636;52.372;13.610;2023-09-30T11:18:35;102243.09;;;18.52;65.53
80323;BME280;69636;52.372;13.610;2023-09-30T11:21:07;102239.41;;;18.37;65.94
80323;BME280;69636;52.372;13.610;2023-09-30T11:23:36;102244.78;;;18.20;66.59
80323;BME280;69636;52.372;13.610;2023-09-30T11:26:04;102238.72;;;18.59;64.91
80323;BME280;69636;52.372;13.610;2023-09-30T11:28:37;102232.19;;;18.70;64.29
80323;BME280;69636;52.372;13.610;2023-09-30T11:31:09;102234.69;;;18.55;63.54
80323;BME280;69636;52.372;13.610;2023-09-30T11:33:50;102239.72;;;18.50;63.90
80323;BME280;69636;52.372;13.610;2023-09-30T11:36:19;102229.69;;;18.60;63.80
80323;BME280;69636;52.372;13.610;2023-09-30T11:38:47;102227.63;;;18.46;64.30
80323;BME280;69636;52.372;13.610;2023-09-30T11:41:16;102233.22;;;18.60;63.71
80323;BME280;69636;52.372;13.610;2023-09-30T11:44:00;102221.44;;;18.61;63.51
80323;BME280;69636;52.372;13.610;2023-09-30T11:46:29;102219.56;;;18.54;63.12
80323;BME280;69636;52.372;13.610;2023-09-30T11:48:58;102221.44;;;18.61;63.22
80323;BME280;69636;52.372;13.610;2023-09-30T11:51:26;102214.50;;;18.83;62.79
80323;BME280;69636;52.372;13.610;2023-09-30T11:53:55;102214.75;;;19.13;62.07
80323;BME280;69636;52.372;13.610;2023-09-30T11:56:23;102221.47;;;19.17;62.42
80323;BME280;69636;52.372;13.610;2023-09-30T11:58:51;102204.06;;;19.27;62.21
80323;BME280;69636;52.372;13.610;2023-09-30T12:01:18;102203.16;;;19.51;61.49
80323;BME280;69636;52.372;13.610;2023-09-30T12:03:47;102187.31;;;19.79;59.93
80323;BME280;69636;52.372;13.610;2023-09-30T12:06:15;102199.72;;;19.88;59.70
80323;BME280;69636;52.372;13.610;2023-09-30T12:08:43;102197.72;;;20.05;60.28
80323;BME280;69636;52.372;13.610;2023-09-30T12:11:10;102197.72;;;20.28;58.97
80323;BME280;69636;52.372;13.610;2023-09-30T12:13:38;102197.97;;;20.41;56.89
80323;BME280;69636;52.372;13.610;2023-09-30T12:16:05;102200.56;;;20.12;58.02
80323;BME280;69636;52.372;13.610;2023-09-30T12:18:33;102200.91;;;19.86;60.09
80323;BME280;69636;52.372;13.610;2023-09-30T12:21:02;102194.94;;;19.98;58.23
80323;BME280;69636;52.372;13.610;2023-09-30T12:23:29;102192.41;;;20.20;58.71
80323;BME280;69636;52.372;13.610;2023-09-30T12:25:56;102188.22;;;20.40;58.28
80323;BME280;69636;52.372;13.610;2023-09-30T12:28:39;102187.25;;;20.10;58.48
80323;BME280;69636;52.372;13.610;2023-09-30T12:31:06;102184.50;;;20.18;59.24
80323;BME280;69636;52.372;13.610;2023-09-30T12:33:34;102179.81;;;20.12;59.46
80323;BME280;69636;52.372;13.610;2023-09-30T12:36:03;102190.97;;;20.09;58.54
80323;BME280;69636;52.372;13.610;2023-09-30T12:38:31;102177.44;;;19.72;58.55
80323;BME280;69636;52.372;13.610;2023-09-30T12:40:58;102186.06;;;19.67;59.21
80323;BME280;69636;52.372;13.610;2023-09-30T12:43:25;102177.03;;;19.83;59.14
80323;BME280;69636;52.372;13.610;2023-09-30T12:45:53;102180.41;;;19.77;57.33